sensor_id;sensor_type;location;lat;lon;timestamp;pressure;altitude;pressure_sealevel;temperature
65316;BMP280;51920;53.952;10.292;2022-12-15T00:02:14;99803.91;;;-6.45
65316;BMP280;51920;53.952;10.292;2022-12-15T00:04:58;99800.41;;;-6.36
65316;BMP280;51920;53.952;10.292;2022-12-15T00:07:41;99814.09;;;-6.34
65316;BMP280;51920;53.952;10.292;2022-12-15T00:10:25;99803.50;;;-6.28
65316;BMP280;51920;53.952;10.292;2022-12-15T00:13:10;99803.47;;;-6.23
65316;BMP280;51920;53.952;10.292;2022-12-15T00:15:54;99802.09;;;-6.21
65316;BMP280;51920;53.952;10.292;2022-12-15T00:18:38;99805.25;;;-6.19
65316;BMP280;51920;53.952;10.292;2022-12-15T00:21:22;99808.50;;;-6.03
65316;BMP280;51920;53.952;10.292;2022-12-15T00:24:06;99818.69;;;-5.96
65316;BMP280;51920;53.952;10.292;2022-12-15T00:26:50;99808.56;;;-5.84
65316;BMP280;51920;53.952;10.292;2022-12-15T00:29:34;99795.69;;;-5.66
65316;BMP280;51920;53.952;10.292;2022-12-15T00:32:18;99789.97;;;-5.73
65316;BMP280;51920;53.952;10.292;2022-12-15T00:35:02;99791.03;;;-5.74
65316;BMP280;51920;53.952;10.292;2022-12-15T00:37:46;99791.97;;;-5.65
65316;BMP280;51920;53.952;10.292;2022-12-15T00:40:30;99779.25;;;-5.58
65316;BMP280;51920;53.952;10.292;2022-12-15T00:42:55;99773.66;;;-5.56
65316;BMP280;51920;53.952;10.292;2022-12-15T00:45:21;99760.47;;;-5.37
65316;BMP280;51920;53.952;10.292;2022-12-15T00:48:06;99748.00;;;-5.51
65316;BMP280;51920;53.952;10.292;2022-12-15T00:50:31;99756.28;;;-5.57
65316;BMP280;51920;53.952;10.292;2022-12-15T00:53:15;99762.13;;;-5.61
65316;BMP280;51920;53.952;10.292;2022-12-15T00:55:59;99772.97;;;-5.62
65316;BMP280;51920;53.952;10.292;2022-12-15T00:58:43;99763.78;;;-5.65
65316;BMP280;51920;53.952;10.292;2022-12-15T01:01:27;99768.19;;;-5.60
65316;BMP280;51920;53.952;10.292;2022-12-15T01:04:11;99776.00;;;-5.55
65316;BMP280;51920;53.952;10.292;2022-12-15T01:06:55;99773.44;;;-5.60
65316;BMP280;51920;53.952;10.292;2022-12-15T01:09:39;99773.16;;;-5.58
65316;BMP280;51920;53.952;10.292;2022-12-15T01:12:23;99770.31;;;-5.62
65316;BMP280;51920;53.952;10.292;2022-12-15T01:15:07;99768.03;;;-5.50
65316;BMP280;51920;53.952;10.292;2022-12-15T01:17:51;99776.22;;;-5.51
65316;BMP280;51920;53.952;10.292;2022-12-15T01:20:35;99785.13;;;-5.66
65316;BMP280;51920;53.952;10.292;2022-12-15T01:23:00;99806.03;;;-5.70
65316;BMP280;51920;53.952;10.292;2022-12-15T01:25:26;99814.28;;;-5.76
65316;BMP280;51920;53.952;10.292;2022-12-15T01:27:52;99797.97;;;-5.79
65316;BMP280;51920;53.952;10.292;2022-12-15T01:30:21;99796.38;;;-5.80
65316;BMP280;51920;53.952;10.292;2022-12-15T01:32:47;99793.28;;;-5.63
65316;BMP280;51920;53.952;10.292;2022-12-15T01:35:13;99781.09;;;-5.58
65316;BMP280;51920;53.952;10.292;2022-12-15T01:37:39;99779.84;;;-5.66
65316;BMP280;51920;53.952;10.292;2022-12-15T01:40:05;99785.13;;;-5.66
65316;BMP280;51920;53.952;10.292;2022-12-15T01:42:50;99787.34;;;-5.73
65316;BMP280;51920;53.952;10.292;2022-12-15T01:45:40;99785.97;;;-5.71
65316;BMP280;51920;53.952;10.292;2022-12-15T01:48:12;99786.75;;;-5.89
65316;BMP280;51920;53.952;10.292;2022-12-15T01:50:47;99780.78;;;-5.76
65316;BMP280;51920;53.952;10.292;2022-12-15T01:53:14;99782.25;;;-5.89
65316;BMP280;51920;53.952;10.292;2022-12-15T01:55:41;99780.41;;;-5.88
65316;BMP280;51920;53.952;10.292;2022-12-15T01:58:08;99787.41;;;-5.79
65316;BMP280;51920;53.952;10.292;2022-12-15T02:00:36;99776.41;;;-5.86
65316;BMP280;51920;53.952;10.292;2022-12-15T02:03:03;99777.78;;;-5.88
65316;BMP280;51920;53.952;10.292;2022-12-15T02:05:30;99790.16;;;-5.89
65316;BMP280;51920;53.952;10.292;2022-12-15T02:07:57;99785.75;;;-5.93
65316;BMP280;51920;53.952;10.292;2022-12-15T02:10:28;99793.38;;;-5.92
65316;BMP280;51920;53.952;10.292;2022-12-15T02:13:14;99789.09;;;-5.88
65316;BMP280;51920;53.952;10.292;2022-12-15T02:16:16;99782.69;;;-5.82
65316;BMP280;51920;53.952;10.292;2022-12-15T02:18:53;99771.31;;;-5.77
65316;BMP280;51920;53.952;10.292;2022-12-15T02:21:34;99766.94;;;-5.87
65316;BMP280;51920;53.952;10.292;2022-12-15T02:24:49;99773.75;;;-5.81
65316;BMP280;51920;53.952;10.292;2022-12-15T02:32:20;99782.13;;;-6.03
65316;BMP280;51920;53.952;10.292;2022-12-15T02:37:22;99786.69;;;-6.08
65316;BMP280;51920;53.952;10.292;2022-12-15T02:39:49;99784.09;;;-6.14
65316;BMP280;51920;53.952;10.292;2022-12-15T02:42:14;99793.66;;;-6.18
65316;BMP280;51920;53.952;10.292;2022-12-15T02:44:47;99787.31;;;-6.17
65316;BMP280;51920;53.952;10.292;2022-12-15T02:47:36;99801.81;;;-6.19
65316;BMP280;51920;53.952;10.292;2022-12-15T02:58:14;99803.84;;;-6.11
65316;BMP280;51920;53.952;10.292;2022-12-15T03:00:58;99804.91;;;-6.12
65316;BMP280;51920;53.952;10.292;2022-12-15T03:03:25;99803.13;;;-6.17
65316;BMP280;51920;53.952;10.292;2022-12-15T03:05:53;99800.59;;;-5.79
65316;BMP280;51920;53.952;10.292;2022-12-15T03:08:20;99819.78;;;-5.97
65316;BMP280;51920;53.952;10.292;2022-12-15T03:10:46;99812.78;;;-6.07
65316;BMP280;51920;53.952;10.292;2022-12-15T03:13:13;99817.03;;;-6.11
65316;BMP280;51920;53.952;10.292;2022-12-15T03:15:39;99823.69;;;-6.19
65316;BMP280;51920;53.952;10.292;2022-12-15T03:18:04;99813.44;;;-6.20
65316;BMP280;51920;53.952;10.292;2022-12-15T03:20:30;99811.59;;;-6.20
65316;BMP280;51920;53.952;10.292;2022-12-15T03:22:55;99810.00;;;-6.21
65316;BMP280;51920;53.952;10.292;2022-12-15T03:25:20;99813.22;;;-6.24
65316;BMP280;51920;53.952;10.292;2022-12-15T03:27:46;99822.97;;;-6.24
65316;BMP280;51920;53.952;10.292;2022-12-15T03:30:12;99820.09;;;-6.28
65316;BMP280;51920;53.952;10.292;2022-12-15T03:32:38;99816.44;;;-6.32
65316;BMP280;51920;53.952;10.292;2022-12-15T03:35:04;99817.00;;;-6.35
65316;BMP280;51920;53.952;10.292;2022-12-15T03:37:29;99817.00;;;-6.35
65316;BMP280;51920;53.952;10.292;2022-12-15T03:39:55;99816.72;;;-6.34
65316;BMP280;51920;53.952;10.292;2022-12-15T03:42:20;99808.81;;;-6.04
65316;BMP280;51920;53.952;10.292;2022-12-15T03:45:06;99817.38;;;-6.18
65316;BMP280;51920;53.952;10.292;2022-12-15T03:47:31;99814.78;;;-6.23
65316;BMP280;51920;53.952;10.292;2022-12-15T03:49:57;99810.63;;;-6.29
65316;BMP280;51920;53.952;10.292;2022-12-15T03:52:22;99808.50;;;-6.27
65316;BMP280;51920;53.952;10.292;2022-12-15T03:54:48;99821.16;;;-6.29
65316;BMP280;51920;53.952;10.292;2022-12-15T03:57:13;99822.72;;;-6.28
65316;BMP280;51920;53.952;10.292;2022-12-15T03:59:38;99813.03;;;-6.33
65316;BMP280;51920;53.952;10.292;2022-12-15T04:02:04;99818.53;;;-6.29
65316;BMP280;51920;53.952;10.292;2022-12-15T04:04:29;99825.84;;;-6.26
65316;BMP280;51920;53.952;10.292;2022-12-15T04:06:54;99823.00;;;-6.29
65316;BMP280;51920;53.952;10.292;2022-12-15T04:09:20;99832.25;;;-6.32
65316;BMP280;51920;53.952;10.292;2022-12-15T04:11:45;99828.03;;;-6.33
65316;BMP280;51920;53.952;10.292;2022-12-15T04:14:11;99833.03;;;-6.32
65316;BMP280;51920;53.952;10.292;2022-12-15T04:16:36;99834.66;;;-6.36
65316;BMP280;51920;53.952;10.292;2022-12-15T04:19:02;99851.28;;;-6.40
65316;BMP280;51920;53.952;10.292;2022-12-15T04:21:46;99850.78;;;-6.42
65316;BMP280;51920;53.952;10.292;2022-12-15T04:24:11;99847.56;;;-6.34
65316;BMP280;51920;53.952;10.292;2022-12-15T04:26:55;99834.41;;;-6.34
65316;BMP280;51920;53.952;10.292;2022-12-15T04:29:39;99834.13;;;-6.33
65316;BMP280;51920;53.952;10.292;2022-12-15T04:32:23;99828.34;;;-6.35
65316;BMP280;51920;53.952;10.292;2022-12-15T04:35:07;99832.25;;;-6.32
65316;BMP280;51920;53.952;10.292;2022-12-15T04:37:51;99833.91;;;-6.36
65316;BMP280;51920;53.952;10.292;2022-12-15T04:40:36;99836.53;;;-6.36
65316;BMP280;51920;53.952;10.292;2022-12-15T04:43:21;99837.03;;;-6.34
65316;BMP280;51920;53.952;10.292;2022-12-15T04:46:04;99838.88;;;-6.35
65316;BMP280;51920;53.952;10.292;2022-12-15T04:48:48;99848.13;;;-6.42
65316;BMP280;51920;53.952;10.292;2022-12-15T04:51:32;99852.91;;;-6.44
65316;BMP280;51920;53.952;10.292;2022-12-15T04:54:17;99834.97;;;-6.42
65316;BMP280;51920;53.952;10.292;2022-12-15T04:57:00;99845.78;;;-6.44
65316;BMP280;51920;53.952;10.292;2022-12-15T04:59:44;99840.47;;;-6.39
65316;BMP280;51920;53.952;10.292;2022-12-15T05:02:28;99844.44;;;-6.41
65316;BMP280;51920;53.952;10.292;2022-12-15T05:05:12;99847.91;;;-6.46
65316;BMP280;51920;53.952;10.292;2022-12-15T05:07:57;99844.56;;;-6.52
65316;BMP280;51920;53.952;10.292;2022-12-15T05:10:41;99854.31;;;-6.52
65316;BMP280;51920;53.952;10.292;2022-12-15T05:13:26;99855.09;;;-6.52
65316;BMP280;51920;53.952;10.292;2022-12-15T05:16:10;99852.69;;;-6.53
65316;BMP280;51920;53.952;10.292;2022-12-15T05:18:54;99852.41;;;-6.46
65316;BMP280;51920;53.952;10.292;2022-12-15T05:21:38;99854.38;;;-6.33
65316;BMP280;51920;53.952;10.292;2022-12-15T05:24:21;99878.53;;;-6.26
65316;BMP280;51920;53.952;10.292;2022-12-15T05:27:05;99870.25;;;-6.38
65316;BMP280;51920;53.952;10.292;2022-12-15T05:29:49;99876.56;;;-6.39
65316;BMP280;51920;53.952;10.292;2022-12-15T05:32:33;99870.25;;;-6.38
65316;BMP280;51920;53.952;10.292;2022-12-15T05:34:59;99880.78;;;-6.38
65316;BMP280;51920;53.952;10.292;2022-12-15T05:37:27;99875.50;;;-6.38
65316;BMP280;51920;53.952;10.292;2022-12-15T05:39:52;99871.28;;;-6.39
65316;BMP280;51920;53.952;10.292;2022-12-15T05:42:18;99869.72;;;-6.40
65316;BMP280;51920;53.952;10.292;2022-12-15T05:44:43;99866.56;;;-6.37
65316;BMP280;51920;53.952;10.292;2022-12-15T05:47:10;99873.69;;;-6.38
65316;BMP280;51920;53.952;10.292;2022-12-15T05:49:35;99879.97;;;-6.39
65316;BMP280;51920;53.952;10.292;2022-12-15T05:52:01;99878.97;;;-6.43
65316;BMP280;51920;53.952;10.292;2022-12-15T05:54:26;99876.06;;;-6.41
65316;BMP280;51920;53.952;10.292;2022-12-15T05:56:52;99885.00;;;-6.42
65316;BMP280;51920;53.952;10.292;2022-12-15T05:59:17;99878.91;;;-6.33
65316;BMP280;51920;53.952;10.292;2022-12-15T06:01:46;99876.50;;;-6.29
65316;BMP280;51920;53.952;10.292;2022-12-15T06:04:11;99887.53;;;-6.27
65316;BMP280;51920;53.952;10.292;2022-12-15T06:06:37;99884.63;;;-6.25
65316;BMP280;51920;53.952;10.292;2022-12-15T06:09:03;99894.13;;;-6.29
65316;BMP280;51920;53.952;10.292;2022-12-15T06:11:29;99891.47;;;-6.24
65316;BMP280;51920;53.952;10.292;2022-12-15T06:13:55;99899.63;;;-6.26
65316;BMP280;51920;53.952;10.292;2022-12-15T06:16:21;99910.72;;;-6.24
65316;BMP280;51920;53.952;10.292;2022-12-15T06:18:52;99908.00;;;-6.19
65316;BMP280;51920;53.952;10.292;2022-12-15T06:21:21;99900.69;;;-6.22
65316;BMP280;51920;53.952;10.292;2022-12-15T06:23:50;99904.88;;;-6.21
65316;BMP280;51920;53.952;10.292;2022-12-15T06:26:24;99912.72;;;-6.10
65316;BMP280;51920;53.952;10.292;2022-12-15T06:28:50;99918.63;;;-5.94
65316;BMP280;51920;53.952;10.292;2022-12-15T06:31:17;99931.97;;;-5.86
65316;BMP280;51920;53.952;10.292;2022-12-15T06:33:43;99926.75;;;-5.91
65316;BMP280;51920;53.952;10.292;2022-12-15T06:36:13;99939.38;;;-5.88
65316;BMP280;51920;53.952;10.292;2022-12-15T06:38:39;99939.44;;;-5.93
65316;BMP280;51920;53.952;10.292;2022-12-15T06:41:08;99936.81;;;-5.98
65316;BMP280;51920;53.952;10.292;2022-12-15T06:43:34;99941.66;;;-6.05
65316;BMP280;51920;53.952;10.292;2022-12-15T06:46:00;99936.69;;;-6.12
65316;BMP280;51920;53.952;10.292;2022-12-15T06:48:26;99946.13;;;-5.76
65316;BMP280;51920;53.952;10.292;2022-12-15T06:50:52;99944.03;;;-5.80
65316;BMP280;51920;53.952;10.292;2022-12-15T06:53:19;99954.94;;;-5.86
65316;BMP280;51920;53.952;10.292;2022-12-15T06:55:45;99948.63;;;-5.90
65316;BMP280;51920;53.952;10.292;2022-12-15T06:58:11;99953.28;;;-5.82
65316;BMP280;51920;53.952;10.292;2022-12-15T07:00:38;99962.63;;;-5.90
65316;BMP280;51920;53.952;10.292;2022-12-15T07:03:07;99963.13;;;-5.88
65316;BMP280;51920;53.952;10.292;2022-12-15T07:05:34;99969.94;;;-5.87
65316;BMP280;51920;53.952;10.292;2022-12-15T07:07:59;99965.75;;;-5.88
65316;BMP280;51920;53.952;10.292;2022-12-15T07:10:24;99975.78;;;-5.90
65316;BMP280;51920;53.952;10.292;2022-12-15T07:12:50;99975.28;;;-5.92
65316;BMP280;51920;53.952;10.292;2022-12-15T07:15:15;99979.78;;;-5.98
65316;BMP280;51920;53.952;10.292;2022-12-15T07:17:41;99979.00;;;-5.98
65316;BMP280;51920;53.952;10.292;2022-12-15T07:20:07;99985.84;;;-5.97
65316;BMP280;51920;53.952;10.292;2022-12-15T07:22:33;99983.50;;;-5.99
65316;BMP280;51920;53.952;10.292;2022-12-15T07:24:58;99992.47;;;-6.00
65316;BMP280;51920;53.952;10.292;2022-12-15T07:27:23;99992.22;;;-6.03
65316;BMP280;51920;53.952;10.292;2022-12-15T07:29:49;100002.72;;;-5.98
65316;BMP280;51920;53.952;10.292;2022-12-15T07:32:14;100005.91;;;-6.01
65316;BMP280;51920;53.952;10.292;2022-12-15T07:34:40;100013.78;;;-5.96
65316;BMP280;51920;53.952;10.292;2022-12-15T07:37:06;100018.81;;;-5.94
65316;BMP280;51920;53.952;10.292;2022-12-15T07:39:32;100015.63;;;-5.91
65316;BMP280;51920;53.952;10.292;2022-12-15T07:41:57;100028.25;;;-5.88
65316;BMP280;51920;53.952;10.292;2022-12-15T07:44:23;100030.31;;;-5.85
65316;BMP280;51920;53.952;10.292;2022-12-15T07:46:48;100029.50;;;-5.81
65316;BMP280;51920;53.952;10.292;2022-12-15T07:49:15;100032.59;;;-5.73
65316;BMP280;51920;53.952;10.292;2022-12-15T07:51:41;100036.22;;;-5.64
65316;BMP280;51920;53.952;10.292;2022-12-15T07:54:08;100039.81;;;-5.55
65316;BMP280;51920;53.952;10.292;2022-12-15T07:56:36;100032.91;;;-5.46
65316;BMP280;51920;53.952;10.292;2022-12-15T07:59:02;100037.31;;;-5.41
65316;BMP280;51920;53.952;10.292;2022-12-15T08:01:27;100037.75;;;-5.34
65316;BMP280;51920;53.952;10.292;2022-12-15T08:03:53;100047.00;;;-5.31
65316;BMP280;51920;53.952;10.292;2022-12-15T08:06:18;100050.38;;;-5.26
65316;BMP280;51920;53.952;10.292;2022-12-15T08:08:44;100059.50;;;-5.18
65316;BMP280;51920;53.952;10.292;2022-12-15T08:11:12;100070.56;;;-5.16
65316;BMP280;51920;53.952;10.292;2022-12-15T08:13:39;100076.09;;;-5.12
65316;BMP280;51920;53.952;10.292;2022-12-15T08:16:05;100076.81;;;-5.07
65316;BMP280;51920;53.952;10.292;2022-12-15T08:18:30;100074.09;;;-5.01
65316;BMP280;51920;53.952;10.292;2022-12-15T08:21:04;100082.00;;;-4.96
65316;BMP280;51920;53.952;10.292;2022-12-15T08:23:31;100073.00;;;-4.95
65316;BMP280;51920;53.952;10.292;2022-12-15T08:26:03;100076.59;;;-4.86
65316;BMP280;51920;53.952;10.292;2022-12-15T08:28:31;100091.97;;;-4.69
65316;BMP280;51920;53.952;10.292;2022-12-15T08:31:04;100084.72;;;-4.58
65316;BMP280;51920;53.952;10.292;2022-12-15T08:33:30;100088.78;;;-4.47
65316;BMP280;51920;53.952;10.292;2022-12-15T08:35:57;100090.84;;;-4.25
65316;BMP280;51920;53.952;10.292;2022-12-15T08:38:25;100085.44;;;-3.96
65316;BMP280;51920;53.952;10.292;2022-12-15T08:40:51;100103.72;;;-3.80
65316;BMP280;51920;53.952;10.292;2022-12-15T08:43:16;100101.16;;;-3.52
65316;BMP280;51920;53.952;10.292;2022-12-15T08:45:42;100092.97;;;-3.70
65316;BMP280;51920;53.952;10.292;2022-12-15T08:48:07;100095.03;;;-3.67
65316;BMP280;51920;53.952;10.292;2022-12-15T08:50:33;100100.31;;;-3.67
65316;BMP280;51920;53.952;10.292;2022-12-15T08:52:58;100101.22;;;-3.71
65316;BMP280;51920;53.952;10.292;2022-12-15T08:55:23;100100.91;;;-3.70
65316;BMP280;51920;53.952;10.292;2022-12-15T08:57:49;100102.06;;;-3.76
65316;BMP280;51920;53.952;10.292;2022-12-15T09:00:15;100119.81;;;-3.63
65316;BMP280;51920;53.952;10.292;2022-12-15T09:02:42;100124.63;;;-3.65
65316;BMP280;51920;53.952;10.292;2022-12-15T09:05:08;100119.34;;;-3.65
65316;BMP280;51920;53.952;10.292;2022-12-15T09:07:34;100118.56;;;-3.65
65316;BMP280;51920;53.952;10.292;2022-12-15T09:09:59;100124.63;;;-3.65
65316;BMP280;51920;53.952;10.292;2022-12-15T09:12:25;100132.06;;;-3.67
65316;BMP280;51920;53.952;10.292;2022-12-15T09:14:50;100123.00;;;-3.61
65316;BMP280;51920;53.952;10.292;2022-12-15T09:17:16;100130.19;;;-3.47
65316;BMP280;51920;53.952;10.292;2022-12-15T09:19:41;100135.03;;;-3.54
65316;BMP280;51920;53.952;10.292;2022-12-15T09:22:09;100133.41;;;-3.50
65316;BMP280;51920;53.952;10.292;2022-12-15T09:24:35;100135.28;;;-3.51
65316;BMP280;51920;53.952;10.292;2022-12-15T09:27:00;100139.63;;;-3.41
65316;BMP280;51920;53.952;10.292;2022-12-15T09:29:27;100134.91;;;-3.44
65316;BMP280;51920;53.952;10.292;2022-12-15T09:31:52;100139.00;;;-3.38
65316;BMP280;51920;53.952;10.292;2022-12-15T09:34:17;100142.25;;;-3.41
65316;BMP280;51920;53.952;10.292;2022-12-15T09:36:43;100140.00;;;-3.34
65316;BMP280;51920;53.952;10.292;2022-12-15T09:39:09;100143.31;;;-3.42
65316;BMP280;51920;53.952;10.292;2022-12-15T09:41:36;100133.34;;;-3.31
65316;BMP280;51920;53.952;10.292;2022-12-15T09:52:02;100117.00;;;-3.19
65316;BMP280;51920;53.952;10.292;2022-12-15T09:54:31;100123.75;;;-3.13
65316;BMP280;51920;53.952;10.292;2022-12-15T09:57:02;100114.56;;;-3.16
65316;BMP280;51920;53.952;10.292;2022-12-15T09:59:49;100124.47;;;-3.22
65316;BMP280;51920;53.952;10.292;2022-12-15T10:02:45;100121.41;;;-3.15
65316;BMP280;51920;53.952;10.292;2022-12-15T10:07:50;100119.03;;;-3.03
65316;BMP280;51920;53.952;10.292;2022-12-15T10:10:37;100133.09;;;-2.88
65316;BMP280;51920;53.952;10.292;2022-12-15T10:13:49;100134.00;;;-2.93
65316;BMP280;51920;53.952;10.292;2022-12-15T10:16:21;100133.09;;;-2.88
65316;BMP280;51920;53.952;10.292;2022-12-15T10:21:21;100139.56;;;-2.80
65316;BMP280;51920;53.952;10.292;2022-12-15T10:23:48;100130.91;;;-2.86
65316;BMP280;51920;53.952;10.292;2022-12-15T10:26:19;100129.94;;;-2.76
65316;BMP280;51920;53.952;10.292;2022-12-15T10:31:53;100120.78;;;-2.70
65316;BMP280;51920;53.952;10.292;2022-12-15T10:34:24;100124.84;;;-2.59
65316;BMP280;51920;53.952;10.292;2022-12-15T10:36:51;100129.03;;;-2.58
65316;BMP280;51920;53.952;10.292;2022-12-15T10:39:19;100128.81;;;-2.48
65316;BMP280;51920;53.952;10.292;2022-12-15T10:41:45;100128.25;;;-2.44
65316;BMP280;51920;53.952;10.292;2022-12-15T10:44:24;100135.78;;;-2.38
65316;BMP280;51920;53.952;10.292;2022-12-15T10:46:56;100139.44;;;-2.48
65316;BMP280;51920;53.952;10.292;2022-12-15T10:49:23;100142.16;;;-2.39
65316;BMP280;51920;53.952;10.292;2022-12-15T10:51:58;100138.84;;;-2.44
65316;BMP280;51920;53.952;10.292;2022-12-15T10:54:47;100139.50;;;-2.39
65316;BMP280;51920;53.952;10.292;2022-12-15T10:57:25;100131.75;;;-2.35
65316;BMP280;51920;53.952;10.292;2022-12-15T10:59:53;100145.41;;;-2.28
65316;BMP280;51920;53.952;10.292;2022-12-15T11:05:08;100155.19;;;-2.15
65316;BMP280;51920;53.952;10.292;2022-12-15T11:07:46;100147.53;;;-2.16
65316;BMP280;51920;53.952;10.292;2022-12-15T11:12:41;100153.03;;;-2.13
65316;BMP280;51920;53.952;10.292;2022-12-15T11:18:17;100142.66;;;-2.00
65316;BMP280;51920;53.952;10.292;2022-12-15T11:20:51;100160.88;;;-1.85
65316;BMP280;51920;53.952;10.292;2022-12-15T11:23:28;100156.19;;;-1.88
65316;BMP280;51920;53.952;10.292;2022-12-15T11:26:01;100150.44;;;-1.81
65316;BMP280;51920;53.952;10.292;2022-12-15T11:28:40;100144.72;;;-1.75
65316;BMP280;51920;53.952;10.292;2022-12-15T11:33:45;100149.06;;;-1.79
65316;BMP280;51920;53.952;10.292;2022-12-15T11:36:41;100158.63;;;-1.69
65316;BMP280;51920;53.952;10.292;2022-12-15T11:39:12;100157.56;;;-1.68
65316;BMP280;51920;53.952;10.292;2022-12-15T11:44:29;100158.66;;;-1.38
65316;BMP280;51920;53.952;10.292;2022-12-15T11:47:16;100151.00;;;-1.39
65316;BMP280;51920;53.952;10.292;2022-12-15T11:50:38;100152.53;;;-1.47
65316;BMP280;51920;53.952;10.292;2022-12-15T11:53:20;100143.63;;;-1.51
65316;BMP280;51920;53.952;10.292;2022-12-15T12:01:12;100149.13;;;-1.39
65316;BMP280;51920;53.952;10.292;2022-12-15T12:06:19;100150.75;;;-1.29
65316;BMP280;51920;53.952;10.292;2022-12-15T12:11:49;100150.00;;;-1.29
65316;BMP280;51920;53.952;10.292;2022-12-15T12:14:29;100154.19;;;-1.28
65316;BMP280;51920;53.952;10.292;2022-12-15T12:17:05;100155.16;;;-1.24
65316;BMP280;51920;53.952;10.292;2022-12-15T12:19:43;100159.84;;;-1.21
65316;BMP280;51920;53.952;10.292;2022-12-15T12:22:29;100165.06;;;-1.07
65316;BMP280;51920;53.952;10.292;2022-12-15T12:27:54;100172.63;;;-0.92
65316;BMP280;51920;53.952;10.292;2022-12-15T12:30:24;100164.16;;;-1.03
65316;BMP280;51920;53.952;10.292;2022-12-15T12:33:08;100163.69;;;-1.05
65316;BMP280;51920;53.952;10.292;2022-12-15T12:35:39;100163.19;;;-1.07
65316;BMP280;51920;53.952;10.292;2022-12-15T12:38:09;100165.72;;;-1.02
65316;BMP280;51920;53.952;10.292;2022-12-15T12:41:04;100169.16;;;-1.01
65316;BMP280;51920;53.952;10.292;2022-12-15T12:43:32;100163.84;;;-0.92
65316;BMP280;51920;53.952;10.292;2022-12-15T12:46:18;100165.75;;;-0.84
65316;BMP280;51920;53.952;10.292;2022-12-15T12:48:50;100167.47;;;-0.88
65316;BMP280;51920;53.952;10.292;2022-12-15T12:51:27;100165.00;;;-0.85
65316;BMP280;51920;53.952;10.292;2022-12-15T12:53:54;100160.31;;;-0.79
65316;BMP280;51920;53.952;10.292;2022-12-15T12:58:53;100177.72;;;1.26
65316;BMP280;51920;53.952;10.292;2022-12-15T13:09:23;100171.22;;;-0.14
65316;BMP280;51920;53.952;10.292;2022-12-15T13:11:54;100170.56;;;-0.29
65316;BMP280;51920;53.952;10.292;2022-12-15T13:14:43;100170.88;;;-0.39
65316;BMP280;51920;53.952;10.292;2022-12-15T13:17:23;100168.22;;;-0.39
65316;BMP280;51920;53.952;10.292;2022-12-15T13:22:35;100171.50;;;-0.42
65316;BMP280;51920;53.952;10.292;2022-12-15T13:25:03;100173.84;;;-0.41
65316;BMP280;51920;53.952;10.292;2022-12-15T13:27:50;100178.34;;;-0.41
65316;BMP280;51920;53.952;10.292;2022-12-15T13:30:17;100177.13;;;-0.35
65316;BMP280;51920;53.952;10.292;2022-12-15T13:32:44;100179.66;;;-0.30
65316;BMP280;51920;53.952;10.292;2022-12-15T13:37:47;100178.69;;;-0.34
65316;BMP280;51920;53.952;10.292;2022-12-15T13:42:58;100181.97;;;-0.37
65316;BMP280;51920;53.952;10.292;2022-12-15T13:45:51;100183.06;;;-0.38
65316;BMP280;51920;53.952;10.292;2022-12-15T13:51:00;100184.19;;;-0.39
65316;BMP280;51920;53.952;10.292;2022-12-15T13:53:37;100188.59;;;-0.26
65316;BMP280;51920;53.952;10.292;2022-12-15T13:56:13;100191.69;;;-0.32
65316;BMP280;51920;53.952;10.292;2022-12-15T13:58:43;100193.88;;;-0.34
65316;BMP280;51920;53.952;10.292;2022-12-15T14:01:25;100198.25;;;-0.39
65316;BMP280;51920;53.952;10.292;2022-12-15T14:03:58;100211.88;;;-0.40
65316;BMP280;51920;53.952;10.292;2022-12-15T14:06:26;100209.50;;;-0.42
65316;BMP280;51920;53.952;10.292;2022-12-15T14:08:53;100215.59;;;-0.41
65316;BMP280;51920;53.952;10.292;2022-12-15T14:11:22;100202.31;;;-0.41
65316;BMP280;51920;53.952;10.292;2022-12-15T14:13:49;100214.22;;;-0.39
65316;BMP280;51920;53.952;10.292;2022-12-15T14:16:17;100212.03;;;-0.36
65316;BMP280;51920;53.952;10.292;2022-12-15T14:18:43;100210.44;;;-0.38
65316;BMP280;51920;53.952;10.292;2022-12-15T14:21:20;100212.63;;;-0.40
65316;BMP280;51920;53.952;10.292;2022-12-15T14:23:45;100215.78;;;-0.38
65316;BMP280;51920;53.952;10.292;2022-12-15T14:26:13;100213.59;;;-0.35
65316;BMP280;51920;53.952;10.292;2022-12-15T14:28:41;100209.66;;;-0.38
65316;BMP280;51920;53.952;10.292;2022-12-15T14:31:14;100215.16;;;-0.34
65316;BMP280;51920;53.952;10.292;2022-12-15T14:33:43;100225.31;;;-0.36
65316;BMP280;51920;53.952;10.292;2022-12-15T14:36:11;100219.53;;;-0.39
65316;BMP280;51920;53.952;10.292;2022-12-15T14:38:57;100218.47;;;-0.29
65316;BMP280;51920;53.952;10.292;2022-12-15T14:43:52;100220.31;;;-0.38
65316;BMP280;51920;53.952;10.292;2022-12-15T14:46:24;100218.75;;;-0.39
65316;BMP280;51920;53.952;10.292;2022-12-15T14:49:04;100224.69;;;-0.42
65316;BMP280;51920;53.952;10.292;2022-12-15T14:51:38;100221.25;;;-0.34
65316;BMP280;51920;53.952;10.292;2022-12-15T14:54:05;100220.31;;;-0.38
65316;BMP280;51920;53.952;10.292;2022-12-15T14:56:30;100222.19;;;-0.39
65316;BMP280;51920;53.952;10.292;2022-12-15T14:59:00;100227.34;;;-0.42
65316;BMP280;51920;53.952;10.292;2022-12-15T15:01:36;100228.44;;;-0.43
65316;BMP280;51920;53.952;10.292;2022-12-15T15:04:06;100230.63;;;-0.45
65316;BMP280;51920;53.952;10.292;2022-12-15T15:06:45;100228.56;;;-0.48
65316;BMP280;51920;53.952;10.292;2022-12-15T15:09:36;100229.38;;;-0.48
65316;BMP280;51920;53.952;10.292;2022-12-15T15:12:07;100231.72;;;-0.46
65316;BMP280;51920;53.952;10.292;2022-12-15T15:14:40;100232.97;;;-0.44
65316;BMP280;51920;53.952;10.292;2022-12-15T15:19:53;100231.91;;;-0.43
65316;BMP280;51920;53.952;10.292;2022-12-15T15:25:00;100236.88;;;-0.41
65316;BMP280;51920;53.952;10.292;2022-12-15T15:27:34;100234.22;;;-0.41
65316;BMP280;51920;53.952;10.292;2022-12-15T15:30:13;100245.97;;;-0.42
65316;BMP280;51920;53.952;10.292;2022-12-15T15:32:50;100242.84;;;-0.44
65316;BMP280;51920;53.952;10.292;2022-12-15T15:35:16;100242.38;;;-0.38
65316;BMP280;51920;53.952;10.292;2022-12-15T15:37:41;100238.47;;;-0.40
65316;BMP280;51920;53.952;10.292;2022-12-15T15:40:12;100241.94;;;-0.31
65316;BMP280;51920;53.952;10.292;2022-12-15T15:42:41;100237.22;;;-0.34
65316;BMP280;51920;53.952;10.292;2022-12-15T15:45:13;100248.53;;;0.33
65316;BMP280;51920;53.952;10.292;2022-12-15T15:47:41;100249.84;;;0.09
65316;BMP280;51920;53.952;10.292;2022-12-15T15:50:15;100248.56;;;0.15